createdAt,value
2018-12-24T00:01:33.332Z,3.53
2018-12-24T00:04:02.476Z,2.93
2018-12-24T00:06:32.119Z,3.27
2018-12-24T00:09:00.871Z,3.10
2018-12-24T00:11:29.943Z,3.30
2018-12-24T00:13:59.003Z,3.40
2018-12-24T00:16:27.897Z,3.20
2018-12-24T00:18:58.344Z,3.27
2018-12-24T00:21:27.381Z,3.00
2018-12-24T00:23:56.639Z,3.00
2018-12-24T00:26:25.865Z,2.73
2018-12-24T00:28:54.659Z,3.03
2018-12-24T00:31:24.468Z,2.70
2018-12-24T00:33:53.263Z,3.13
2018-12-24T00:36:22.575Z,3.00
2018-12-24T00:38:51.324Z,3.27
2018-12-24T00:41:20.099Z,2.87
2018-12-24T00:43:48.935Z,2.83
2018-12-24T00:46:18.143Z,2.80
2018-12-24T00:48:46.896Z,3.17
2018-12-24T00:51:15.655Z,2.83
2018-12-24T00:53:44.989Z,3.10
2018-12-24T00:56:13.749Z,2.77
2018-12-24T00:58:42.636Z,2.53
2018-12-24T01:01:11.429Z,2.80
2018-12-24T01:03:40.612Z,3.15
2018-12-24T01:06:09.480Z,2.53
2018-12-24T01:08:38.920Z,2.40
2018-12-24T01:11:07.430Z,2.60
2018-12-24T01:13:36.857Z,2.60
2018-12-24T01:16:05.956Z,2.70
2018-12-24T01:18:35.075Z,2.20
2018-12-24T01:21:03.863Z,2.97
2018-12-24T01:23:33.040Z,2.37
2018-12-24T01:26:02.808Z,2.47
2018-12-24T01:28:31.816Z,2.75
2018-12-24T01:31:00.562Z,2.53
2018-12-24T01:33:29.863Z,2.40
2018-12-24T01:35:58.659Z,2.60
2018-12-24T01:38:28.256Z,2.62
2018-12-24T01:40:57.207Z,2.83
2018-12-24T01:43:26.563Z,2.53
2018-12-24T01:45:56.103Z,2.80
2018-12-24T01:48:24.691Z,2.67
2018-12-24T01:50:54.015Z,2.50
2018-12-24T01:53:23.412Z,2.57
2018-12-24T01:55:52.452Z,2.60
2018-12-24T01:58:21.464Z,2.77
2018-12-24T02:00:49.787Z,2.70
2018-12-24T02:03:18.337Z,2.33
2018-12-24T02:05:47.800Z,3.00
2018-12-24T02:08:17.631Z,2.40
2018-12-24T02:10:47.088Z,2.30
2018-12-24T02:13:16.108Z,2.87
2018-12-24T02:15:45.588Z,2.23
2018-12-24T02:18:15.681Z,2.27
2018-12-24T02:20:45.456Z,2.53
2018-12-24T02:23:14.810Z,2.67
2018-12-24T02:25:44.000Z,2.60
2018-12-24T02:28:13.093Z,2.40
2018-12-24T02:30:42.207Z,2.50
2018-12-24T02:33:11.296Z,2.60
2018-12-24T02:35:40.832Z,2.40
2018-12-24T02:38:10.004Z,2.50
2018-12-24T02:40:39.572Z,2.25
2018-12-24T02:43:08.286Z,2.07
2018-12-24T02:45:37.225Z,2.37
2018-12-24T02:48:05.851Z,2.30
2018-12-24T02:50:34.316Z,2.30
2018-12-24T02:53:03.512Z,2.10
2018-12-24T02:55:32.622Z,2.17
2018-12-24T02:58:01.872Z,2.27
2018-12-24T03:00:30.820Z,2.33
2018-12-24T03:02:59.856Z,2.00
2018-12-24T03:05:29.448Z,2.17
2018-12-24T03:07:58.412Z,2.43
2018-12-24T03:10:27.423Z,1.93
2018-12-24T03:13:02.478Z,2.37
2018-12-24T03:15:27.053Z,1.97
2018-12-24T03:17:56.246Z,1.90
2018-12-24T03:20:25.349Z,2.60
2018-12-24T03:22:53.942Z,2.10
2018-12-24T03:25:24.089Z,1.97
2018-12-24T03:27:53.796Z,2.27
2018-12-24T03:30:22.314Z,2.00
2018-12-24T03:32:51.537Z,1.80
2018-12-24T03:35:20.352Z,1.97
2018-12-24T03:37:49.374Z,1.70
2018-12-24T03:40:19.328Z,1.97
2018-12-24T03:42:48.614Z,1.83
2018-12-24T03:45:17.641Z,2.23
2018-12-24T03:47:46.796Z,2.00
2018-12-24T03:50:15.300Z,2.02
2018-12-24T03:52:44.344Z,2.00
2018-12-24T03:55:13.651Z,1.80
2018-12-24T03:57:43.419Z,1.87
2018-12-24T04:00:12.411Z,1.90
2018-12-24T04:02:41.764Z,1.93
2018-12-24T04:05:10.644Z,2.00
2018-12-24T04:07:39.297Z,1.53
2018-12-24T04:10:09.236Z,1.45
2018-12-24T04:12:38.208Z,2.03
2018-12-24T04:15:06.871Z,1.67
2018-12-24T04:17:36.248Z,1.70
2018-12-24T04:20:05.652Z,1.70
2018-12-24T04:22:34.179Z,1.80
2018-12-24T04:25:03.698Z,2.10
2018-12-24T04:27:41.408Z,1.50
2018-12-24T04:30:04.347Z,1.50
2018-12-24T04:32:33.196Z,1.90
2018-12-24T04:35:02.218Z,1.70
2018-12-24T04:37:31.617Z,1.60
2018-12-24T04:40:01.132Z,1.67
2018-12-24T04:42:30.572Z,1.83
2018-12-24T04:45:00.187Z,1.57
2018-12-24T04:47:28.981Z,1.63
2018-12-24T04:49:58.104Z,1.70
2018-12-24T04:52:27.089Z,1.80
2018-12-24T04:54:56.248Z,1.97
2018-12-24T04:57:24.867Z,1.50
2018-12-24T04:59:53.380Z,1.70
2018-12-24T05:02:22.820Z,1.30
2018-12-24T05:04:51.643Z,1.67
2018-12-24T05:07:21.828Z,1.90
2018-12-24T05:09:51.232Z,1.50
2018-12-24T05:12:20.827Z,1.93
2018-12-24T05:14:49.288Z,1.67
2018-12-24T05:17:18.423Z,1.70
2018-12-24T05:19:47.572Z,1.67
2018-12-24T05:22:16.747Z,1.80
2018-12-24T05:24:46.375Z,1.80
2018-12-24T05:27:15.539Z,1.50
2018-12-24T05:29:44.651Z,1.67
2018-12-24T05:32:13.727Z,1.67
2018-12-24T05:34:42.520Z,1.87
2018-12-24T05:37:11.567Z,1.50
2018-12-24T05:39:41.224Z,1.73
2018-12-24T05:42:10.289Z,1.77
2018-12-24T05:44:39.729Z,1.87
2018-12-24T05:47:08.524Z,1.60
2018-12-24T05:49:38.464Z,1.80
2018-12-24T05:52:07.344Z,2.03
2018-12-24T05:54:36.148Z,1.70
2018-12-24T05:57:04.935Z,1.70
2018-12-24T05:59:34.083Z,1.77
2018-12-24T06:02:02.858Z,1.53
2018-12-24T06:04:32.780Z,1.63
2018-12-24T06:07:01.915Z,1.67
2018-12-24T06:09:30.964Z,1.80
2018-12-24T06:12:00.321Z,1.57
2018-12-24T06:14:29.437Z,2.03
2018-12-24T06:16:59.216Z,1.90
2018-12-24T06:19:28.409Z,1.77
2018-12-24T06:21:56.905Z,2.13
2018-12-24T06:24:25.726Z,2.10
2018-12-24T06:26:55.492Z,1.70
2018-12-24T06:29:24.504Z,1.90
2018-12-24T06:31:53.638Z,1.80
2018-12-24T06:34:23.057Z,1.90
2018-12-24T06:36:51.912Z,1.97
2018-12-24T06:39:22.200Z,1.80
2018-12-24T06:41:51.191Z,2.03
2018-12-24T06:44:20.255Z,1.90
2018-12-24T06:46:49.459Z,2.27
2018-12-24T06:49:17.983Z,2.47
2018-12-24T06:51:47.270Z,1.70
2018-12-24T06:54:16.564Z,2.17
2018-12-24T06:56:45.108Z,2.10
2018-12-24T06:59:13.698Z,2.27
2018-12-24T07:01:42.813Z,2.10
2018-12-24T07:04:11.694Z,2.02
2018-12-24T07:06:41.060Z,1.83
2018-12-24T07:09:10.000Z,1.80
2018-12-24T07:11:38.817Z,2.08
2018-12-24T07:14:15.262Z,1.90
2018-12-24T07:16:38.591Z,2.30
2018-12-24T07:19:10.195Z,1.90
2018-12-24T07:21:39.395Z,2.13
2018-12-24T07:24:08.383Z,1.80
2018-12-24T07:26:37.799Z,2.00
2018-12-24T07:29:06.594Z,1.63
2018-12-24T07:31:35.460Z,2.50
2018-12-24T07:34:04.441Z,2.17
2018-12-24T07:36:33.516Z,2.43
2018-12-24T07:39:02.281Z,2.30
2018-12-24T07:41:31.468Z,2.30
2018-12-24T07:44:01.323Z,2.53
2018-12-24T07:46:30.048Z,2.10
2018-12-24T07:49:00.028Z,2.13
2018-12-24T07:51:29.468Z,2.53
2018-12-24T07:53:59.196Z,2.40
2018-12-24T07:56:29.216Z,2.83
2018-12-24T07:58:58.685Z,2.53
2018-12-24T08:01:27.925Z,2.70
2018-12-24T08:03:57.016Z,2.00
2018-12-24T08:06:26.063Z,2.53
2018-12-24T08:08:56.015Z,2.60
2018-12-24T08:11:24.729Z,2.03
2018-12-24T08:13:53.888Z,2.10
2018-12-24T08:16:23.096Z,1.67
2018-12-24T08:18:51.922Z,2.30
2018-12-24T08:21:21.084Z,1.83
2018-12-24T08:23:50.531Z,1.90
2018-12-24T08:26:19.872Z,1.60
2018-12-24T08:28:49.099Z,2.00
2018-12-24T08:31:18.612Z,2.12
2018-12-24T08:33:47.771Z,2.23
2018-12-24T08:36:17.592Z,1.67
2018-12-24T08:38:46.632Z,1.67
2018-12-24T08:41:15.560Z,1.97
2018-12-24T08:43:45.967Z,1.67
2018-12-24T08:46:14.829Z,2.00
2018-12-24T08:48:44.445Z,2.00
2018-12-24T08:51:13.559Z,2.07
2018-12-24T08:53:42.555Z,1.90
2018-12-24T08:56:12.720Z,2.20
2018-12-24T08:58:41.635Z,1.80
2018-12-24T09:01:10.987Z,2.33
2018-12-24T09:03:41.623Z,2.10
2018-12-24T09:06:10.579Z,1.80
2018-12-24T09:08:39.694Z,2.03
2018-12-24T09:11:08.497Z,2.00
2018-12-24T09:13:38.555Z,2.30
2018-12-24T09:16:07.631Z,1.80
2018-12-24T09:18:36.726Z,2.20
2018-12-24T09:21:05.737Z,2.20
2018-12-24T09:23:35.056Z,2.40
2018-12-24T09:26:03.871Z,2.20
2018-12-24T09:28:32.825Z,2.30
2018-12-24T09:31:02.321Z,2.33
2018-12-24T09:33:31.140Z,2.03
2018-12-24T09:36:00.631Z,2.35
2018-12-24T09:38:30.296Z,2.40
2018-12-24T09:41:00.183Z,2.47
2018-12-24T09:43:29.058Z,2.53
2018-12-24T09:45:59.663Z,4.60
2018-12-24T09:48:28.416Z,6.97
2018-12-24T09:50:57.605Z,8.50
2018-12-24T09:53:26.508Z,6.53
2018-12-24T09:55:59.511Z,4.17
2018-12-24T09:58:28.835Z,8.13
2018-12-24T10:00:57.394Z,3.27
2018-12-24T10:03:30.584Z,2.40
2018-12-24T10:06:04.036Z,2.37
2018-12-24T10:08:33.759Z,2.23
2018-12-24T10:11:02.533Z,2.50
2018-12-24T10:13:31.598Z,2.00
2018-12-24T10:16:00.708Z,2.03
2018-12-24T10:18:29.816Z,2.20
2018-12-24T10:20:59.228Z,1.87
2018-12-24T10:23:28.268Z,2.00
2018-12-24T10:25:56.968Z,2.10
2018-12-24T10:28:26.096Z,1.87
2018-12-24T10:30:55.460Z,1.70
2018-12-24T10:33:24.773Z,1.57
2018-12-24T10:35:53.809Z,2.20
2018-12-24T10:38:23.008Z,2.30
2018-12-24T10:40:58.412Z,2.10
2018-12-24T10:43:27.745Z,2.20
2018-12-24T10:45:56.613Z,2.10
2018-12-24T10:48:25.099Z,1.93
2018-12-24T10:50:54.572Z,2.02
2018-12-24T10:53:23.810Z,1.80
2018-12-24T10:55:53.228Z,2.10
2018-12-24T10:58:22.283Z,2.07
2018-12-24T11:00:51.312Z,1.93
2018-12-24T11:03:20.964Z,2.12
2018-12-24T11:05:51.202Z,2.20
2018-12-24T11:08:20.568Z,2.40
2018-12-24T11:10:50.507Z,2.10
2018-12-24T11:13:19.121Z,2.17
2018-12-24T11:15:48.643Z,2.10
2018-12-24T11:18:18.116Z,1.80
2018-12-24T11:20:47.269Z,2.13
2018-12-24T11:23:16.436Z,2.13
2018-12-24T11:25:45.768Z,1.93
2018-12-24T11:28:14.859Z,2.03
2018-12-24T11:30:44.095Z,2.33
2018-12-24T11:33:12.969Z,2.17
2018-12-24T11:35:42.120Z,2.00
2018-12-24T11:38:11.488Z,1.83
2018-12-24T11:40:40.836Z,2.20
2018-12-24T11:43:10.493Z,1.80
2018-12-24T11:45:39.403Z,2.47
2018-12-24T11:48:08.152Z,1.83
2018-12-24T11:50:37.391Z,2.00
2018-12-24T11:53:06.192Z,1.92
2018-12-24T11:55:36.144Z,2.37
2018-12-24T11:58:04.735Z,1.97
2018-12-24T12:00:34.144Z,2.17
2018-12-24T12:03:03.920Z,2.40
2018-12-24T12:05:33.340Z,2.17
2018-12-24T12:08:03.312Z,2.13
2018-12-24T12:10:32.974Z,2.30
2018-12-24T12:13:02.907Z,2.30
2018-12-24T12:15:32.651Z,2.50
2018-12-24T12:18:01.657Z,1.97
2018-12-24T12:20:30.968Z,2.57
2018-12-24T12:23:00.194Z,2.05
2018-12-24T12:25:29.001Z,2.00
2018-12-24T12:27:59.071Z,2.00
2018-12-24T12:30:29.234Z,2.00
2018-12-24T12:33:04.283Z,1.93
2018-12-24T12:35:33.637Z,2.40
2018-12-24T12:38:02.763Z,2.07
2018-12-24T12:40:32.539Z,2.07
2018-12-24T12:43:02.864Z,2.20
2018-12-24T12:45:35.532Z,2.27
2018-12-24T12:48:07.043Z,1.93
2018-12-24T12:50:35.915Z,2.00
2018-12-24T12:53:08.235Z,2.10
2018-12-24T12:55:37.935Z,2.10
2018-12-24T12:58:07.025Z,2.03
2018-12-24T13:00:35.813Z,2.23
2018-12-24T13:03:05.832Z,2.00
2018-12-24T13:05:35.443Z,1.90
2018-12-24T13:08:06.633Z,1.93
2018-12-24T13:10:37.090Z,2.23
2018-12-24T13:13:06.560Z,2.10
2018-12-24T13:15:35.159Z,2.20
2018-12-24T13:18:04.592Z,2.27
2018-12-24T13:20:33.676Z,1.77
2018-12-24T13:23:02.564Z,1.90
2018-12-24T13:25:32.079Z,2.03
2018-12-24T13:28:02.283Z,2.77
2018-12-24T13:30:31.451Z,2.57
2018-12-24T13:33:00.529Z,2.70
2018-12-24T13:35:29.160Z,3.20
2018-12-24T13:37:57.680Z,2.43
2018-12-24T13:40:27.173Z,2.80
2018-12-24T13:42:57.277Z,2.70
2018-12-24T13:45:25.837Z,2.67
2018-12-24T13:47:55.291Z,2.73
2018-12-24T13:50:28.620Z,3.07
2018-12-24T13:52:58.660Z,2.93
2018-12-24T13:55:27.503Z,2.95
2018-12-24T13:57:56.304Z,3.13
2018-12-24T14:00:25.691Z,3.05
2018-12-24T14:02:54.835Z,2.73
2018-12-24T14:05:24.655Z,2.83
2018-12-24T14:07:53.588Z,3.17
2018-12-24T14:10:23.157Z,2.90
2018-12-24T14:12:53.866Z,3.08
2018-12-24T14:15:23.076Z,3.10
2018-12-24T14:17:52.092Z,3.20
2018-12-24T14:20:20.841Z,3.50
2018-12-24T14:22:49.808Z,3.30
2018-12-24T14:25:18.733Z,3.72
2018-12-24T14:27:47.805Z,3.30
2018-12-24T14:30:16.336Z,3.60
2018-12-24T14:32:46.596Z,3.30
2018-12-24T14:35:15.390Z,3.97
2018-12-24T14:37:44.535Z,3.57
2018-12-24T14:40:13.800Z,3.83
2018-12-24T14:42:43.308Z,3.57
2018-12-24T14:45:12.641Z,4.63
2018-12-24T14:48:39.674Z,3.55
2018-12-24T14:51:09.439Z,3.47
2018-12-24T14:53:38.540Z,3.02
2018-12-24T14:56:07.152Z,3.50
2018-12-24T14:58:35.976Z,3.10
2018-12-24T15:01:05.982Z,3.17
2018-12-24T15:03:35.459Z,3.97
2018-12-24T15:06:04.707Z,3.80
2018-12-24T15:08:34.064Z,3.87
2018-12-24T15:11:03.221Z,3.87
2018-12-24T15:13:31.731Z,3.63
2018-12-24T15:16:00.975Z,3.20
2018-12-24T15:18:29.809Z,4.63
2018-12-24T15:20:58.438Z,3.53
2018-12-24T15:23:28.324Z,3.80
2018-12-24T15:25:57.515Z,3.97
2018-12-24T15:28:26.655Z,3.57
2018-12-24T15:30:55.742Z,3.30
2018-12-24T15:33:24.730Z,3.60
2018-12-24T15:35:54.219Z,2.90
2018-12-24T15:38:23.116Z,3.23
2018-12-24T15:40:52.108Z,3.50
2018-12-24T15:43:21.144Z,3.80
2018-12-24T15:45:50.813Z,4.30
2018-12-24T15:48:19.924Z,4.30
2018-12-24T15:50:49.032Z,5.83
2018-12-24T15:53:18.119Z,4.43
2018-12-24T15:55:47.217Z,5.17
2018-12-24T15:58:16.403Z,6.10
2018-12-24T16:00:45.807Z,4.77
2018-12-24T16:03:14.884Z,5.78
2018-12-24T16:05:43.411Z,6.27
2018-12-24T16:08:11.924Z,5.00
2018-12-24T16:10:41.139Z,3.40
2018-12-24T16:13:10.650Z,3.53
2018-12-24T16:15:40.012Z,3.83
2018-12-24T16:18:08.780Z,3.08
2018-12-24T16:20:37.894Z,3.27
2018-12-24T16:23:06.640Z,3.70
2018-12-24T16:25:35.523Z,3.60
2018-12-24T16:28:04.511Z,4.33
2018-12-24T16:30:34.068Z,4.20
2018-12-24T16:33:03.093Z,4.83
2018-12-24T16:35:32.051Z,4.20
2018-12-24T16:38:01.797Z,4.83
2018-12-24T16:40:30.805Z,4.43
2018-12-24T16:43:00.225Z,5.53
2018-12-24T16:45:28.778Z,4.10
2018-12-24T16:47:57.944Z,4.80
2018-12-24T16:50:27.365Z,4.73
2018-12-24T16:52:57.215Z,4.40
2018-12-24T16:55:27.101Z,4.30
2018-12-24T16:57:56.287Z,3.87
2018-12-24T17:00:25.888Z,3.87
2018-12-24T17:02:54.763Z,4.67
2018-12-24T17:05:24.436Z,3.93
2018-12-24T17:07:56.492Z,4.60
2018-12-24T17:10:25.682Z,3.90
2018-12-24T17:12:54.844Z,3.87
2018-12-24T17:15:25.316Z,4.40
2018-12-24T17:17:54.889Z,4.00
2018-12-24T17:20:24.517Z,3.80
2018-12-24T17:22:53.348Z,4.00
2018-12-24T17:25:23.793Z,3.67
2018-12-24T17:27:52.805Z,4.17
2018-12-24T17:30:21.695Z,3.60
2018-12-24T17:32:50.713Z,3.97
2018-12-24T17:35:19.687Z,3.70
2018-12-24T17:37:48.705Z,3.40
2018-12-24T17:40:18.579Z,3.70
2018-12-24T17:42:52.177Z,2.80
2018-12-24T17:45:20.732Z,3.70
2018-12-24T17:47:53.137Z,3.70
2018-12-24T17:50:22.548Z,4.37
2018-12-24T17:52:51.999Z,3.73
2018-12-24T17:55:21.033Z,4.00
2018-12-24T17:57:50.407Z,3.70
2018-12-24T18:00:19.483Z,3.83
2018-12-24T18:02:49.280Z,3.73
2018-12-24T18:05:18.344Z,3.60
2018-12-24T18:07:47.416Z,4.00
2018-12-24T18:10:16.941Z,3.30
2018-12-24T18:12:51.717Z,3.20
2018-12-24T18:15:20.257Z,3.40
2018-12-24T18:17:49.284Z,3.87
2018-12-24T18:20:18.200Z,3.50
2018-12-24T18:22:47.580Z,3.03
2018-12-24T18:25:16.889Z,3.80
2018-12-24T18:27:45.703Z,3.23
2018-12-24T18:30:14.463Z,3.40
2018-12-24T18:32:44.264Z,3.62
2018-12-24T18:35:13.705Z,3.80
2018-12-24T18:37:42.923Z,3.30
2018-12-24T18:40:13.134Z,3.53
2018-12-24T18:42:41.932Z,3.50
2018-12-24T18:45:10.806Z,3.30
2018-12-24T18:47:39.344Z,3.80
2018-12-24T18:50:08.735Z,3.37
2018-12-24T18:52:37.728Z,3.50
2018-12-24T18:55:06.630Z,3.50
2018-12-24T18:57:35.883Z,3.62
2018-12-24T19:00:05.552Z,3.13
2018-12-24T19:02:34.683Z,3.60
2018-12-24T19:05:04.116Z,3.10
2018-12-24T19:07:33.261Z,2.90
2018-12-24T19:10:02.408Z,3.40
2018-12-24T19:12:31.085Z,3.57
2018-12-24T19:15:00.007Z,3.10
2018-12-24T19:17:29.160Z,3.10
2018-12-24T19:19:59.025Z,2.83
2018-12-24T19:22:28.194Z,2.90
2018-12-24T19:24:57.628Z,3.07
2018-12-24T19:27:26.724Z,3.70
2018-12-24T19:29:55.800Z,3.70
2018-12-24T19:32:24.547Z,2.97
2018-12-24T19:34:55.239Z,3.42
2018-12-24T19:37:24.080Z,3.03
2018-12-24T19:39:53.235Z,3.60
2018-12-24T19:42:22.284Z,3.53
2018-12-24T19:44:51.295Z,3.05
2018-12-24T19:47:20.755Z,3.47
2018-12-24T19:49:49.879Z,3.73
2018-12-24T19:52:18.983Z,2.97
2018-12-24T19:54:48.059Z,3.60
2018-12-24T19:57:17.900Z,3.03
2018-12-24T19:59:47.060Z,3.27
2018-12-24T20:02:15.811Z,3.30
2018-12-24T20:04:44.684Z,3.53
2018-12-24T20:07:13.452Z,3.53
2018-12-24T20:09:43.212Z,2.83
2018-12-24T20:12:12.071Z,3.30
2018-12-24T20:14:41.308Z,3.20
2018-12-24T20:17:10.720Z,3.23
2018-12-24T20:19:40.138Z,3.33
2018-12-24T20:22:10.355Z,3.17
2018-12-24T20:24:40.603Z,2.60
2018-12-24T20:27:10.447Z,3.53
2018-12-24T20:29:39.747Z,2.67
2018-12-24T20:32:08.453Z,2.50
2018-12-24T20:34:37.579Z,3.00
2018-12-24T20:37:06.619Z,3.20
2018-12-24T20:39:35.635Z,2.95
2018-12-24T20:42:05.059Z,3.07
2018-12-24T20:44:34.863Z,3.60
2018-12-24T20:47:04.369Z,3.27
2018-12-24T20:49:33.945Z,2.90
2018-12-24T20:52:03.582Z,3.17
2018-12-24T20:54:32.993Z,3.13
2018-12-24T20:57:02.543Z,2.97
2018-12-24T20:59:31.660Z,2.87
2018-12-24T21:02:00.464Z,2.97
2018-12-24T21:04:29.255Z,3.20
2018-12-24T21:06:58.469Z,3.00
2018-12-24T21:09:28.263Z,3.10
2018-12-24T21:11:56.828Z,3.00
2018-12-24T21:14:26.395Z,2.97
2018-12-24T21:16:59.768Z,3.57
2018-12-24T21:19:29.039Z,3.03
2018-12-24T21:21:58.049Z,3.20
2018-12-24T21:24:27.495Z,2.60
2018-12-24T21:26:57.515Z,3.30
2018-12-24T21:29:26.971Z,2.80
2018-12-24T21:31:55.877Z,2.87
2018-12-24T21:34:25.685Z,2.90
2018-12-24T21:36:54.536Z,2.87
2018-12-24T21:39:23.284Z,2.70
2018-12-24T21:41:52.321Z,3.20
2018-12-24T21:44:22.711Z,2.87
2018-12-24T21:46:51.188Z,3.30
2018-12-24T21:49:20.579Z,3.50
2018-12-24T21:51:48.949Z,3.53
2018-12-24T21:54:18.355Z,2.97
2018-12-24T21:56:48.872Z,3.30
2018-12-24T21:59:19.069Z,3.30
2018-12-24T22:01:47.852Z,3.50
2018-12-24T22:04:17.362Z,3.13
2018-12-24T22:06:46.031Z,3.33
2018-12-24T22:09:15.099Z,3.30
2018-12-24T22:11:44.587Z,3.20
2018-12-24T22:14:13.955Z,3.17
2018-12-24T22:16:43.944Z,3.37
2018-12-24T22:19:13.391Z,2.73
2018-12-24T22:21:42.511Z,2.90
2018-12-24T22:24:11.308Z,3.17
2018-12-24T22:26:40.725Z,2.73
2018-12-24T22:29:09.644Z,3.50
2018-12-24T22:31:38.463Z,3.10
2018-12-24T22:34:07.640Z,2.93
2018-12-24T22:36:37.047Z,3.37
2018-12-24T22:39:06.848Z,3.20
2018-12-24T22:41:36.780Z,3.10
2018-12-24T22:44:05.512Z,3.20
2018-12-24T22:46:35.075Z,3.27
2018-12-24T22:49:04.207Z,3.10
2018-12-24T22:51:33.036Z,2.73
2018-12-24T22:54:02.483Z,3.00
2018-12-24T22:56:31.837Z,2.60
2018-12-24T22:59:00.717Z,3.27
2018-12-24T23:01:30.089Z,2.80
2018-12-24T23:03:58.638Z,3.07
2018-12-24T23:06:29.239Z,2.90
2018-12-24T23:08:59.781Z,2.60
2018-12-24T23:11:28.518Z,2.80
2018-12-24T23:13:57.575Z,3.20
2018-12-24T23:16:27.181Z,3.10
2018-12-24T23:18:55.964Z,2.77
2018-12-24T23:21:25.225Z,2.60
2018-12-24T23:23:55.420Z,2.67
2018-12-24T23:26:24.320Z,3.03
2018-12-24T23:28:53.445Z,3.00
2018-12-24T23:31:22.269Z,3.30
2018-12-24T23:33:51.417Z,2.73
2018-12-24T23:36:20.195Z,2.93
2018-12-24T23:38:48.923Z,2.93
2018-12-24T23:41:17.903Z,2.83
2018-12-24T23:43:47.252Z,2.67
2018-12-24T23:46:16.039Z,2.58
2018-12-24T23:48:45.281Z,2.67
2018-12-24T23:51:14.148Z,2.53
2018-12-24T23:53:42.975Z,3.00
2018-12-24T23:56:12.040Z,2.55
2018-12-24T23:58:41.184Z,2.73
